MUVR/VRA METAR and TAF weather

Enter ICAO airport designator
Station Type Date Time Source
MUVR METAR 2019/12/08 06:50 UTC NOAA

MUVR 080650Z 13006KT 8000 NSC 16/16 Q1019


Station Type Date Time Source
MUVR Decoded METAR 2019/12/08 06:50 UTC NOAA

Varadero, Matanzas, Cuba (MUVR) 23-08N 081-17W 3M
Dec 08, 2019 - 01:50 AM EST / 2019.12.08 0650 UTC
Wind: from the SE (130 degrees) at 7 MPH (6 KT):0
Visibility: 4 mile(s):0
Temperature: 60 F (16 C)
Dew Point: 60 F (16 C)
Relative Humidity: 100%
Pressure (altimeter): 30.09 in. Hg (1019 hPa)
ob: MUVR 080650Z 13006KT 8000 NSC 16/16 Q1019
cycle: 7

Station Type Date Time Source
MUVR TAF 2019/12/08 06:03 UTC NOAA

TAF MUVR 080500Z 0806/0906 VRB03KT 9000 SCT020
BECMG 0815/0817 07008KT
BECMG 0901/0903 VRB03KT

Example: see airport list